sensor_id;sensor_type;location;lat;lon;timestamp;temperature;humidity
12130;DHT22;6128;59.340;18.040;2022-11-12T00:01:13;15.10;99.90
12130;DHT22;6128;59.340;18.040;2022-11-12T00:03:40;15.10;99.90
12130;DHT22;6128;59.340;18.040;2022-11-12T00:06:09;15.10;99.90
12130;DHT22;6128;59.340;18.040;2022-11-12T00:08:37;15.10;99.90
12130;DHT22;6128;59.340;18.040;2022-11-12T00:11:04;15.10;99.90
12130;DHT22;6128;59.340;18.040;2022-11-12T00:13:34;15.00;99.90
12130;DHT22;6128;59.340;18.040;2022-11-12T00:16:02;15.00;99.90
12130;DHT22;6128;59.340;18.040;2022-11-12T00:18:30;15.00;99.90
12130;DHT22;6128;59.340;18.040;2022-11-12T00:20:57;15.00;99.90
12130;DHT22;6128;59.340;18.040;2022-11-12T00:23:26;15.00;99.90
12130;DHT22;6128;59.340;18.040;2022-11-12T00:26:00;15.00;99.90
12130;DHT22;6128;59.340;18.040;2022-11-12T00:28:27;15.00;99.90
12130;DHT22;6128;59.340;18.040;2022-11-12T00:30:54;15.00;99.90
12130;DHT22;6128;59.340;18.040;2022-11-12T00:33:21;15.00;99.90
12130;DHT22;6128;59.340;18.040;2022-11-12T00:35:49;15.00;99.90
12130;DHT22;6128;59.340;18.040;2022-11-12T00:38:19;15.00;99.90
12130;DHT22;6128;59.340;18.040;2022-11-12T00:40:48;15.00;99.90
12130;DHT22;6128;59.340;18.040;2022-11-12T00:43:17;15.00;99.90
12130;DHT22;6128;59.340;18.040;2022-11-12T00:45:45;14.90;99.90
12130;DHT22;6128;59.340;18.040;2022-11-12T00:48:13;14.90;99.90
12130;DHT22;6128;59.340;18.040;2022-11-12T00:50:40;14.90;99.90
12130;DHT22;6128;59.340;18.040;2022-11-12T00:53:11;14.90;99.90
12130;DHT22;6128;59.340;18.040;2022-11-12T00:55:38;14.90;99.90
12130;DHT22;6128;59.340;18.040;2022-11-12T00:58:07;14.90;99.90
12130;DHT22;6128;59.340;18.040;2022-11-12T01:00:35;14.90;99.90
12130;DHT22;6128;59.340;18.040;2022-11-12T01:03:02;14.80;99.90
12130;DHT22;6128;59.340;18.040;2022-11-12T01:05:32;14.80;99.90
12130;DHT22;6128;59.340;18.040;2022-11-12T01:08:01;14.80;99.90
12130;DHT22;6128;59.340;18.040;2022-11-12T01:10:29;14.80;99.90
12130;DHT22;6128;59.340;18.040;2022-11-12T01:12:57;14.70;99.90
12130;DHT22;6128;59.340;18.040;2022-11-12T01:15:27;14.70;99.90
12130;DHT22;6128;59.340;18.040;2022-11-12T01:17:54;14.70;99.90
12130;DHT22;6128;59.340;18.040;2022-11-12T01:20:22;14.70;99.90
12130;DHT22;6128;59.340;18.040;2022-11-12T01:22:49;14.70;99.90
12130;DHT22;6128;59.340;18.040;2022-11-12T01:25:16;14.70;99.90
12130;DHT22;6128;59.340;18.040;2022-11-12T01:27:44;14.70;99.90
12130;DHT22;6128;59.340;18.040;2022-11-12T01:30:11;14.70;99.90
12130;DHT22;6128;59.340;18.040;2022-11-12T01:32:41;14.70;99.90
12130;DHT22;6128;59.340;18.040;2022-11-12T01:35:08;14.70;99.90
12130;DHT22;6128;59.340;18.040;2022-11-12T01:37:38;14.70;99.90
12130;DHT22;6128;59.340;18.040;2022-11-12T01:40:06;14.70;99.90
12130;DHT22;6128;59.340;18.040;2022-11-12T01:42:34;14.70;99.90
12130;DHT22;6128;59.340;18.040;2022-11-12T01:45:08;14.70;99.90
12130;DHT22;6128;59.340;18.040;2022-11-12T01:47:43;14.70;99.90
12130;DHT22;6128;59.340;18.040;2022-11-12T01:50:19;14.70;99.90
12130;DHT22;6128;59.340;18.040;2022-11-12T01:52:50;14.70;99.90
12130;DHT22;6128;59.340;18.040;2022-11-12T01:55:26;14.70;99.90
12130;DHT22;6128;59.340;18.040;2022-11-12T01:57:58;14.80;99.90
12130;DHT22;6128;59.340;18.040;2022-11-12T02:00:26;14.80;99.90
12130;DHT22;6128;59.340;18.040;2022-11-12T02:02:58;14.80;99.90
12130;DHT22;6128;59.340;18.040;2022-11-12T02:05:28;14.80;99.90
12130;DHT22;6128;59.340;18.040;2022-11-12T02:07:59;14.80;99.90
12130;DHT22;6128;59.340;18.040;2022-11-12T02:10:27;14.80;99.90
12130;DHT22;6128;59.340;18.040;2022-11-12T02:12:55;14.80;99.90
12130;DHT22;6128;59.340;18.040;2022-11-12T02:15:41;14.80;99.90
12130;DHT22;6128;59.340;18.040;2022-11-12T02:18:11;14.80;99.90
12130;DHT22;6128;59.340;18.040;2022-11-12T02:20:38;14.80;99.90
12130;DHT22;6128;59.340;18.040;2022-11-12T02:23:12;14.80;99.90
12130;DHT22;6128;59.340;18.040;2022-11-12T02:25:40;14.80;99.90
12130;DHT22;6128;59.340;18.040;2022-11-12T02:28:07;14.80;99.90
12130;DHT22;6128;59.340;18.040;2022-11-12T02:30:38;14.80;99.90
12130;DHT22;6128;59.340;18.040;2022-11-12T02:33:06;14.80;99.90
12130;DHT22;6128;59.340;18.040;2022-11-12T02:35:33;14.80;99.90
12130;DHT22;6128;59.340;18.040;2022-11-12T02:38:03;14.80;99.90
12130;DHT22;6128;59.340;18.040;2022-11-12T02:40:35;14.80;99.90
12130;DHT22;6128;59.340;18.040;2022-11-12T02:43:03;14.80;99.90
12130;DHT22;6128;59.340;18.040;2022-11-12T02:45:31;14.80;99.90
12130;DHT22;6128;59.340;18.040;2022-11-12T02:47:58;14.80;99.90
12130;DHT22;6128;59.340;18.040;2022-11-12T02:50:28;14.90;99.90
12130;DHT22;6128;59.340;18.040;2022-11-12T02:52:55;14.90;99.90
12130;DHT22;6128;59.340;18.040;2022-11-12T02:55:24;14.90;99.90
12130;DHT22;6128;59.340;18.040;2022-11-12T02:57:56;14.90;99.90
12130;DHT22;6128;59.340;18.040;2022-11-12T03:00:27;14.90;99.90
12130;DHT22;6128;59.340;18.040;2022-11-12T03:02:55;14.80;99.90
12130;DHT22;6128;59.340;18.040;2022-11-12T03:05:27;14.90;99.90
12130;DHT22;6128;59.340;18.040;2022-11-12T03:07:56;14.90;99.90
12130;DHT22;6128;59.340;18.040;2022-11-12T03:10:24;14.90;99.90
12130;DHT22;6128;59.340;18.040;2022-11-12T03:13:05;14.90;99.90
12130;DHT22;6128;59.340;18.040;2022-11-12T03:15:32;14.80;99.90
12130;DHT22;6128;59.340;18.040;2022-11-12T03:18:00;14.80;99.90
12130;DHT22;6128;59.340;18.040;2022-11-12T03:20:28;14.80;99.90
12130;DHT22;6128;59.340;18.040;2022-11-12T03:22:58;14.80;99.90
12130;DHT22;6128;59.340;18.040;2022-11-12T03:25:26;14.80;99.90
12130;DHT22;6128;59.340;18.040;2022-11-12T03:27:58;14.80;99.90
12130;DHT22;6128;59.340;18.040;2022-11-12T03:30:29;14.80;99.90
12130;DHT22;6128;59.340;18.040;2022-11-12T03:32:58;14.80;99.90
12130;DHT22;6128;59.340;18.040;2022-11-12T03:35:26;14.80;99.90
12130;DHT22;6128;59.340;18.040;2022-11-12T03:37:54;14.80;99.90
12130;DHT22;6128;59.340;18.040;2022-11-12T03:40:22;14.80;99.90
12130;DHT22;6128;59.340;18.040;2022-11-12T03:42:50;14.80;99.90
12130;DHT22;6128;59.340;18.040;2022-11-12T03:45:19;14.80;99.90
12130;DHT22;6128;59.340;18.040;2022-11-12T03:47:49;14.80;99.90
12130;DHT22;6128;59.340;18.040;2022-11-12T03:50:21;14.80;99.90
12130;DHT22;6128;59.340;18.040;2022-11-12T03:52:51;14.80;99.90
12130;DHT22;6128;59.340;18.040;2022-11-12T03:55:20;14.80;99.90
12130;DHT22;6128;59.340;18.040;2022-11-12T03:57:50;14.70;99.90
12130;DHT22;6128;59.340;18.040;2022-11-12T04:00:19;14.70;99.90
12130;DHT22;6128;59.340;18.040;2022-11-12T04:02:48;14.70;99.90
12130;DHT22;6128;59.340;18.040;2022-11-12T04:05:16;14.70;99.90
12130;DHT22;6128;59.340;18.040;2022-11-12T04:08:02;14.70;99.90
12130;DHT22;6128;59.340;18.040;2022-11-12T04:10:47;14.60;99.90
12130;DHT22;6128;59.340;18.040;2022-11-12T04:13:14;14.60;99.90
12130;DHT22;6128;59.340;18.040;2022-11-12T04:15:59;14.60;99.90
12130;DHT22;6128;59.340;18.040;2022-11-12T04:18:47;14.60;99.90
12130;DHT22;6128;59.340;18.040;2022-11-12T04:21:33;14.60;99.90
12130;DHT22;6128;59.340;18.040;2022-11-12T04:24:23;14.60;99.90
12130;DHT22;6128;59.340;18.040;2022-11-12T04:27:09;14.60;99.90
12130;DHT22;6128;59.340;18.040;2022-11-12T04:29:37;14.60;99.90
12130;DHT22;6128;59.340;18.040;2022-11-12T04:32:22;14.50;99.90
12130;DHT22;6128;59.340;18.040;2022-11-12T04:34:52;14.50;99.90
12130;DHT22;6128;59.340;18.040;2022-11-12T04:37:20;14.50;99.90
12130;DHT22;6128;59.340;18.040;2022-11-12T04:39:47;14.50;99.90
12130;DHT22;6128;59.340;18.040;2022-11-12T04:42:18;14.50;99.90
12130;DHT22;6128;59.340;18.040;2022-11-12T04:45:04;14.50;99.90
12130;DHT22;6128;59.340;18.040;2022-11-12T04:47:35;14.50;99.90
12130;DHT22;6128;59.340;18.040;2022-11-12T04:50:12;14.40;99.90
12130;DHT22;6128;59.340;18.040;2022-11-12T04:52:42;14.40;99.90
12130;DHT22;6128;59.340;18.040;2022-11-12T04:55:12;14.40;99.90
12130;DHT22;6128;59.340;18.040;2022-11-12T04:57:39;14.40;99.90
12130;DHT22;6128;59.340;18.040;2022-11-12T05:00:08;14.30;99.90
12130;DHT22;6128;59.340;18.040;2022-11-12T05:02:37;14.30;99.90
12130;DHT22;6128;59.340;18.040;2022-11-12T05:05:07;14.30;99.90
12130;DHT22;6128;59.340;18.040;2022-11-12T05:07:36;14.30;99.90
12130;DHT22;6128;59.340;18.040;2022-11-12T05:10:05;14.30;99.90
12130;DHT22;6128;59.340;18.040;2022-11-12T05:12:36;14.30;99.90
12130;DHT22;6128;59.340;18.040;2022-11-12T05:15:05;14.30;99.90
12130;DHT22;6128;59.340;18.040;2022-11-12T05:17:32;14.20;99.90
12130;DHT22;6128;59.340;18.040;2022-11-12T05:19:59;14.30;99.90
12130;DHT22;6128;59.340;18.040;2022-11-12T05:22:29;14.30;99.90
12130;DHT22;6128;59.340;18.040;2022-11-12T05:24:55;14.30;99.90
12130;DHT22;6128;59.340;18.040;2022-11-12T05:27:22;14.30;99.90
12130;DHT22;6128;59.340;18.040;2022-11-12T05:29:49;14.30;99.90
12130;DHT22;6128;59.340;18.040;2022-11-12T05:32:17;14.30;99.90
12130;DHT22;6128;59.340;18.040;2022-11-12T05:34:44;14.20;99.90
12130;DHT22;6128;59.340;18.040;2022-11-12T05:37:13;14.20;99.90
12130;DHT22;6128;59.340;18.040;2022-11-12T05:39:42;14.20;99.90
12130;DHT22;6128;59.340;18.040;2022-11-12T05:42:10;14.20;99.90
12130;DHT22;6128;59.340;18.040;2022-11-12T05:44:38;14.20;99.90
12130;DHT22;6128;59.340;18.040;2022-11-12T05:47:05;14.10;99.90
12130;DHT22;6128;59.340;18.040;2022-11-12T05:49:33;14.10;99.90
12130;DHT22;6128;59.340;18.040;2022-11-12T05:52:00;14.10;99.90
12130;DHT22;6128;59.340;18.040;2022-11-12T05:54:27;14.10;99.90
12130;DHT22;6128;59.340;18.040;2022-11-12T05:56:57;14.10;99.90
12130;DHT22;6128;59.340;18.040;2022-11-12T05:59:25;14.00;99.90
12130;DHT22;6128;59.340;18.040;2022-11-12T06:01:53;14.00;99.90
12130;DHT22;6128;59.340;18.040;2022-11-12T06:04:20;14.00;99.90
12130;DHT22;6128;59.340;18.040;2022-11-12T06:06:48;14.00;99.90
12130;DHT22;6128;59.340;18.040;2022-11-12T06:09:16;13.90;99.90
12130;DHT22;6128;59.340;18.040;2022-11-12T06:11:43;13.90;99.90
12130;DHT22;6128;59.340;18.040;2022-11-12T06:14:12;13.90;99.90
12130;DHT22;6128;59.340;18.040;2022-11-12T06:16:39;13.90;99.90
12130;DHT22;6128;59.340;18.040;2022-11-12T06:19:07;13.90;99.90
12130;DHT22;6128;59.340;18.040;2022-11-12T06:21:34;13.80;99.90
12130;DHT22;6128;59.340;18.040;2022-11-12T06:24:02;13.90;99.90
12130;DHT22;6128;59.340;18.040;2022-11-12T06:26:29;13.90;99.90
12130;DHT22;6128;59.340;18.040;2022-11-12T06:28:57;13.80;99.90
12130;DHT22;6128;59.340;18.040;2022-11-12T06:31:26;13.80;99.90
12130;DHT22;6128;59.340;18.040;2022-11-12T06:33:54;13.80;99.90
12130;DHT22;6128;59.340;18.040;2022-11-12T06:36:22;13.80;99.90
12130;DHT22;6128;59.340;18.040;2022-11-12T06:38:50;13.80;99.90
12130;DHT22;6128;59.340;18.040;2022-11-12T06:41:18;13.80;99.90
12130;DHT22;6128;59.340;18.040;2022-11-12T06:43:46;13.80;99.90
12130;DHT22;6128;59.340;18.040;2022-11-12T06:46:15;13.70;99.90
12130;DHT22;6128;59.340;18.040;2022-11-12T06:48:44;13.70;99.90
12130;DHT22;6128;59.340;18.040;2022-11-12T06:51:15;13.70;99.90
12130;DHT22;6128;59.340;18.040;2022-11-12T06:53:43;13.70;99.90
12130;DHT22;6128;59.340;18.040;2022-11-12T06:56:12;13.70;99.90
12130;DHT22;6128;59.340;18.040;2022-11-12T06:58:40;13.70;99.90
12130;DHT22;6128;59.340;18.040;2022-11-12T07:01:09;13.70;99.90
12130;DHT22;6128;59.340;18.040;2022-11-12T07:03:49;13.70;99.90
12130;DHT22;6128;59.340;18.040;2022-11-12T07:06:19;13.70;99.90
12130;DHT22;6128;59.340;18.040;2022-11-12T07:08:52;13.70;99.90
12130;DHT22;6128;59.340;18.040;2022-11-12T07:11:20;13.70;99.90
12130;DHT22;6128;59.340;18.040;2022-11-12T07:13:51;13.70;99.90
12130;DHT22;6128;59.340;18.040;2022-11-12T07:16:19;13.70;99.90
12130;DHT22;6128;59.340;18.040;2022-11-12T07:18:48;13.80;99.90
12130;DHT22;6128;59.340;18.040;2022-11-12T07:21:19;13.80;99.90
12130;DHT22;6128;59.340;18.040;2022-11-12T07:23:46;13.90;99.90
12130;DHT22;6128;59.340;18.040;2022-11-12T07:26:16;14.00;99.90
12130;DHT22;6128;59.340;18.040;2022-11-12T07:28:57;14.00;99.90
12130;DHT22;6128;59.340;18.040;2022-11-12T07:31:27;14.00;99.90
12130;DHT22;6128;59.340;18.040;2022-11-12T07:33:54;14.10;99.90
12130;DHT22;6128;59.340;18.040;2022-11-12T07:36:25;14.10;99.90
12130;DHT22;6128;59.340;18.040;2022-11-12T07:38:53;14.20;99.90
12130;DHT22;6128;59.340;18.040;2022-11-12T07:41:22;14.40;99.90
12130;DHT22;6128;59.340;18.040;2022-11-12T07:43:51;14.50;99.90
12130;DHT22;6128;59.340;18.040;2022-11-12T07:46:21;14.70;99.90
12130;DHT22;6128;59.340;18.040;2022-11-12T07:48:49;14.90;99.90
12130;DHT22;6128;59.340;18.040;2022-11-12T07:51:19;15.10;99.90
12130;DHT22;6128;59.340;18.040;2022-11-12T07:53:49;15.40;99.90
12130;DHT22;6128;59.340;18.040;2022-11-12T07:56:18;15.80;99.90
12130;DHT22;6128;59.340;18.040;2022-11-12T07:58:47;16.30;99.90
12130;DHT22;6128;59.340;18.040;2022-11-12T08:01:28;16.70;99.90
12130;DHT22;6128;59.340;18.040;2022-11-12T08:03:57;17.20;99.90
12130;DHT22;6128;59.340;18.040;2022-11-12T08:06:26;17.50;99.90
12130;DHT22;6128;59.340;18.040;2022-11-12T08:08:55;17.60;99.90
12130;DHT22;6128;59.340;18.040;2022-11-12T08:11:23;17.80;99.90
12130;DHT22;6128;59.340;18.040;2022-11-12T08:13:51;18.00;99.90
12130;DHT22;6128;59.340;18.040;2022-11-12T08:16:19;18.40;99.90
12130;DHT22;6128;59.340;18.040;2022-11-12T08:18:47;18.50;99.90
12130;DHT22;6128;59.340;18.040;2022-11-12T08:21:16;18.70;99.90
12130;DHT22;6128;59.340;18.040;2022-11-12T08:23:50;18.90;99.90
12130;DHT22;6128;59.340;18.040;2022-11-12T08:26:20;19.00;99.90
12130;DHT22;6128;59.340;18.040;2022-11-12T08:28:48;19.00;99.90
12130;DHT22;6128;59.340;18.040;2022-11-12T08:31:17;19.00;99.90
12130;DHT22;6128;59.340;18.040;2022-11-12T08:33:46;19.10;99.90
12130;DHT22;6128;59.340;18.040;2022-11-12T08:36:16;19.30;99.90
12130;DHT22;6128;59.340;18.040;2022-11-12T08:38:44;19.40;99.90
12130;DHT22;6128;59.340;18.040;2022-11-12T08:41:13;19.50;99.90
12130;DHT22;6128;59.340;18.040;2022-11-12T08:43:44;19.70;99.90
12130;DHT22;6128;59.340;18.040;2022-11-12T08:46:11;19.40;99.90
12130;DHT22;6128;59.340;18.040;2022-11-12T08:48:39;19.00;99.90
12130;DHT22;6128;59.340;18.040;2022-11-12T08:51:09;18.50;99.90
12130;DHT22;6128;59.340;18.040;2022-11-12T08:53:36;18.00;99.90
12130;DHT22;6128;59.340;18.040;2022-11-12T08:56:06;17.60;99.90
12130;DHT22;6128;59.340;18.040;2022-11-12T08:58:39;17.10;99.90
12130;DHT22;6128;59.340;18.040;2022-11-12T09:01:08;16.70;99.90
12130;DHT22;6128;59.340;18.040;2022-11-12T09:03:36;16.40;99.90
12130;DHT22;6128;59.340;18.040;2022-11-12T09:06:05;16.20;99.90
12130;DHT22;6128;59.340;18.040;2022-11-12T09:08:35;15.90;99.90
12130;DHT22;6128;59.340;18.040;2022-11-12T09:11:05;15.80;99.90
12130;DHT22;6128;59.340;18.040;2022-11-12T09:13:33;15.60;99.90
12130;DHT22;6128;59.340;18.040;2022-11-12T09:16:02;15.50;99.90
12130;DHT22;6128;59.340;18.040;2022-11-12T09:18:32;15.40;99.90
12130;DHT22;6128;59.340;18.040;2022-11-12T09:21:00;15.40;99.90
12130;DHT22;6128;59.340;18.040;2022-11-12T09:23:29;15.30;99.90
12130;DHT22;6128;59.340;18.040;2022-11-12T09:26:01;15.30;99.90
12130;DHT22;6128;59.340;18.040;2022-11-12T09:28:29;15.30;99.90
12130;DHT22;6128;59.340;18.040;2022-11-12T09:31:11;15.20;99.90
12130;DHT22;6128;59.340;18.040;2022-11-12T09:33:42;15.20;99.90
12130;DHT22;6128;59.340;18.040;2022-11-12T09:36:10;15.30;99.90
12130;DHT22;6128;59.340;18.040;2022-11-12T09:38:39;15.30;99.90
12130;DHT22;6128;59.340;18.040;2022-11-12T09:41:17;15.30;99.90
12130;DHT22;6128;59.340;18.040;2022-11-12T09:43:49;15.30;99.90
12130;DHT22;6128;59.340;18.040;2022-11-12T09:46:39;15.30;99.90
12130;DHT22;6128;59.340;18.040;2022-11-12T09:49:15;15.30;99.90
12130;DHT22;6128;59.340;18.040;2022-11-12T09:51:49;15.30;99.90
12130;DHT22;6128;59.340;18.040;2022-11-12T09:54:22;15.40;99.90
12130;DHT22;6128;59.340;18.040;2022-11-12T09:56:53;15.40;99.90
12130;DHT22;6128;59.340;18.040;2022-11-12T09:59:27;15.40;99.90
12130;DHT22;6128;59.340;18.040;2022-11-12T10:02:05;15.50;99.90
12130;DHT22;6128;59.340;18.040;2022-11-12T10:07:46;15.40;99.90
12130;DHT22;6128;59.340;18.040;2022-11-12T10:10:18;15.40;99.90
12130;DHT22;6128;59.340;18.040;2022-11-12T10:13:12;15.30;99.90
12130;DHT22;6128;59.340;18.040;2022-11-12T10:15:54;15.30;99.90
12130;DHT22;6128;59.340;18.040;2022-11-12T10:22:12;15.40;99.90
12130;DHT22;6128;59.340;18.040;2022-11-12T10:24:43;15.40;99.90
12130;DHT22;6128;59.340;18.040;2022-11-12T10:27:15;15.50;99.90
12130;DHT22;6128;59.340;18.040;2022-11-12T10:29:50;15.50;99.90
12130;DHT22;6128;59.340;18.040;2022-11-12T10:32:18;15.50;99.90
12130;DHT22;6128;59.340;18.040;2022-11-12T10:34:46;15.50;99.90
12130;DHT22;6128;59.340;18.040;2022-11-12T10:37:19;15.60;99.90
12130;DHT22;6128;59.340;18.040;2022-11-12T10:39:55;15.60;99.90
12130;DHT22;6128;59.340;18.040;2022-11-12T10:42:23;15.60;99.90
12130;DHT22;6128;59.340;18.040;2022-11-12T10:44:51;15.60;99.90
12130;DHT22;6128;59.340;18.040;2022-11-12T10:47:24;15.60;99.90
12130;DHT22;6128;59.340;18.040;2022-11-12T10:50:15;15.50;99.90
12130;DHT22;6128;59.340;18.040;2022-11-12T10:52:57;15.50;99.90
12130;DHT22;6128;59.340;18.040;2022-11-12T10:55:26;15.60;99.90
12130;DHT22;6128;59.340;18.040;2022-11-12T10:58:06;15.50;99.90
12130;DHT22;6128;59.340;18.040;2022-11-12T11:01:01;15.60;99.90
12130;DHT22;6128;59.340;18.040;2022-11-12T11:03:31;15.60;99.90
12130;DHT22;6128;59.340;18.040;2022-11-12T11:06:01;15.60;99.90
12130;DHT22;6128;59.340;18.040;2022-11-12T11:08:34;15.60;99.90
12130;DHT22;6128;59.340;18.040;2022-11-12T11:11:18;15.60;99.90
12130;DHT22;6128;59.340;18.040;2022-11-12T11:13:46;15.60;99.90
12130;DHT22;6128;59.340;18.040;2022-11-12T11:16:16;15.60;99.90
12130;DHT22;6128;59.340;18.040;2022-11-12T11:18:46;15.60;99.90
12130;DHT22;6128;59.340;18.040;2022-11-12T11:21:33;15.50;99.90
12130;DHT22;6128;59.340;18.040;2022-11-12T11:24:21;15.50;99.90
12130;DHT22;6128;59.340;18.040;2022-11-12T11:26:57;15.50;99.90
12130;DHT22;6128;59.340;18.040;2022-11-12T11:29:38;15.50;99.90
12130;DHT22;6128;59.340;18.040;2022-11-12T11:32:20;15.50;99.90
12130;DHT22;6128;59.340;18.040;2022-11-12T11:35:00;15.50;99.90
12130;DHT22;6128;59.340;18.040;2022-11-12T11:37:37;15.50;99.90
12130;DHT22;6128;59.340;18.040;2022-11-12T11:40:23;15.50;99.90
12130;DHT22;6128;59.340;18.040;2022-11-12T11:43:06;15.50;99.90
12130;DHT22;6128;59.340;18.040;2022-11-12T11:45:49;15.50;99.90
12130;DHT22;6128;59.340;18.040;2022-11-12T11:48:29;15.50;99.90
12130;DHT22;6128;59.340;18.040;2022-11-12T11:51:07;15.50;99.90
12130;DHT22;6128;59.340;18.040;2022-11-12T11:53:45;15.50;99.90
12130;DHT22;6128;59.340;18.040;2022-11-12T11:56:22;15.50;99.90
12130;DHT22;6128;59.340;18.040;2022-11-12T11:59:04;15.50;99.90
12130;DHT22;6128;59.340;18.040;2022-11-12T12:01:38;15.60;99.90
12130;DHT22;6128;59.340;18.040;2022-11-12T12:04:32;15.60;99.90
12130;DHT22;6128;59.340;18.040;2022-11-12T12:07:14;15.60;99.90
12130;DHT22;6128;59.340;18.040;2022-11-12T12:09:53;15.50;99.90
12130;DHT22;6128;59.340;18.040;2022-11-12T12:12:44;15.50;99.90
12130;DHT22;6128;59.340;18.040;2022-11-12T12:15:40;15.40;99.90
12130;DHT22;6128;59.340;18.040;2022-11-12T12:18:18;15.40;99.90
12130;DHT22;6128;59.340;18.040;2022-11-12T12:20:54;15.40;99.90
12130;DHT22;6128;59.340;18.040;2022-11-12T12:23:30;15.30;99.90
12130;DHT22;6128;59.340;18.040;2022-11-12T12:26:04;15.30;99.90
12130;DHT22;6128;59.340;18.040;2022-11-12T12:28:42;15.30;99.90
12130;DHT22;6128;59.340;18.040;2022-11-12T12:31:14;15.20;99.90
12130;DHT22;6128;59.340;18.040;2022-11-12T12:33:47;15.20;99.90
12130;DHT22;6128;59.340;18.040;2022-11-12T12:36:18;15.20;99.90
12130;DHT22;6128;59.340;18.040;2022-11-12T12:38:51;15.20;99.90
12130;DHT22;6128;59.340;18.040;2022-11-12T12:41:26;15.20;99.90
12130;DHT22;6128;59.340;18.040;2022-11-12T12:44:04;15.20;99.90
12130;DHT22;6128;59.340;18.040;2022-11-12T12:46:36;15.10;99.90
12130;DHT22;6128;59.340;18.040;2022-11-12T12:49:09;15.10;99.90
12130;DHT22;6128;59.340;18.040;2022-11-12T12:51:37;15.10;99.90
12130;DHT22;6128;59.340;18.040;2022-11-12T12:57:39;15.10;99.90
12130;DHT22;6128;59.340;18.040;2022-11-12T13:00:31;15.00;99.90
12130;DHT22;6128;59.340;18.040;2022-11-12T13:03:00;15.00;99.90
12130;DHT22;6128;59.340;18.040;2022-11-12T13:05:29;15.00;99.90
12130;DHT22;6128;59.340;18.040;2022-11-12T13:08:00;15.00;99.90
12130;DHT22;6128;59.340;18.040;2022-11-12T13:10:52;15.00;99.90
12130;DHT22;6128;59.340;18.040;2022-11-12T13:13:38;15.00;99.90
12130;DHT22;6128;59.340;18.040;2022-11-12T13:16:07;15.00;99.90
12130;DHT22;6128;59.340;18.040;2022-11-12T13:18:59;15.00;99.90
12130;DHT22;6128;59.340;18.040;2022-11-12T13:21:27;15.00;99.90
12130;DHT22;6128;59.340;18.040;2022-11-12T13:23:57;15.00;99.90
12130;DHT22;6128;59.340;18.040;2022-11-12T13:26:50;15.00;99.90
12130;DHT22;6128;59.340;18.040;2022-11-12T13:29:38;14.90;99.90
12130;DHT22;6128;59.340;18.040;2022-11-12T13:32:32;14.90;99.90
12130;DHT22;6128;59.340;18.040;2022-11-12T13:35:33;14.90;99.90
12130;DHT22;6128;59.340;18.040;2022-11-12T13:38:03;14.80;99.90
12130;DHT22;6128;59.340;18.040;2022-11-12T13:40:41;14.80;99.90
12130;DHT22;6128;59.340;18.040;2022-11-12T13:43:15;14.70;99.90
12130;DHT22;6128;59.340;18.040;2022-11-12T13:45:47;14.70;99.90
12130;DHT22;6128;59.340;18.040;2022-11-12T13:48:23;14.70;99.90
12130;DHT22;6128;59.340;18.040;2022-11-12T13:50:54;14.60;99.90
12130;DHT22;6128;59.340;18.040;2022-11-12T13:53:24;14.60;99.90
12130;DHT22;6128;59.340;18.040;2022-11-12T13:55:53;14.60;99.90
12130;DHT22;6128;59.340;18.040;2022-11-12T13:58:26;14.50;99.90
12130;DHT22;6128;59.340;18.040;2022-11-12T14:00:55;14.50;99.90
12130;DHT22;6128;59.340;18.040;2022-11-12T14:03:27;14.40;99.90
12130;DHT22;6128;59.340;18.040;2022-11-12T14:05:59;14.30;99.90
12130;DHT22;6128;59.340;18.040;2022-11-12T14:08:59;14.30;99.90
12130;DHT22;6128;59.340;18.040;2022-11-12T14:11:58;14.30;99.90
12130;DHT22;6128;59.340;18.040;2022-11-12T14:14:39;14.20;99.90
12130;DHT22;6128;59.340;18.040;2022-11-12T14:17:23;14.10;99.90
12130;DHT22;6128;59.340;18.040;2022-11-12T14:22:49;14.10;99.90
12130;DHT22;6128;59.340;18.040;2022-11-12T14:25:18;14.00;99.90
12130;DHT22;6128;59.340;18.040;2022-11-12T14:27:47;14.00;99.90
12130;DHT22;6128;59.340;18.040;2022-11-12T14:30:17;13.90;99.90
12130;DHT22;6128;59.340;18.040;2022-11-12T14:32:49;13.90;99.90
12130;DHT22;6128;59.340;18.040;2022-11-12T14:35:30;13.90;99.90
12130;DHT22;6128;59.340;18.040;2022-11-12T14:38:03;13.90;99.90
12130;DHT22;6128;59.340;18.040;2022-11-12T14:40:32;13.80;99.90
12130;DHT22;6128;59.340;18.040;2022-11-12T14:43:01;13.80;99.90
12130;DHT22;6128;59.340;18.040;2022-11-12T14:45:28;13.70;99.90
12130;DHT22;6128;59.340;18.040;2022-11-12T14:47:56;13.70;99.90
12130;DHT22;6128;59.340;18.040;2022-11-12T14:50:29;13.70;99.90
12130;DHT22;6128;59.340;18.040;2022-11-12T14:53:01;13.70;99.90
12130;DHT22;6128;59.340;18.040;2022-11-12T14:55:32;13.60;99.90
12130;DHT22;6128;59.340;18.040;2022-11-12T14:58:01;13.60;99.90
12130;DHT22;6128;59.340;18.040;2022-11-12T15:00:38;13.50;99.90
12130;DHT22;6128;59.340;18.040;2022-11-12T15:03:06;13.50;99.90
12130;DHT22;6128;59.340;18.040;2022-11-12T15:05:52;13.40;99.90
12130;DHT22;6128;59.340;18.040;2022-11-12T15:08:31;13.40;99.90
12130;DHT22;6128;59.340;18.040;2022-11-12T15:11:21;13.40;99.90
12130;DHT22;6128;59.340;18.040;2022-11-12T15:13:50;13.40;99.90
12130;DHT22;6128;59.340;18.040;2022-11-12T15:16:22;13.30;99.90
12130;DHT22;6128;59.340;18.040;2022-11-12T15:19:06;13.30;99.90
12130;DHT22;6128;59.340;18.040;2022-11-12T15:21:43;13.20;99.90
12130;DHT22;6128;59.340;18.040;2022-11-12T15:24:23;13.20;99.90
12130;DHT22;6128;59.340;18.040;2022-11-12T15:26:58;13.10;99.90
12130;DHT22;6128;59.340;18.040;2022-11-12T15:29:31;13.10;99.90
12130;DHT22;6128;59.340;18.040;2022-11-12T15:32:30;13.10;99.90
12130;DHT22;6128;59.340;18.040;2022-11-12T15:35:01;13.00;99.90
12130;DHT22;6128;59.340;18.040;2022-11-12T15:37:39;13.00;99.90
12130;DHT22;6128;59.340;18.040;2022-11-12T15:40:14;12.90;99.90
12130;DHT22;6128;59.340;18.040;2022-11-12T15:42:44;12.90;99.90
12130;DHT22;6128;59.340;18.040;2022-11-12T15:45:15;12.90;99.90
12130;DHT22;6128;59.340;18.040;2022-11-12T15:47:45;12.80;99.90
12130;DHT22;6128;59.340;18.040;2022-11-12T15:50:15;12.80;99.90
12130;DHT22;6128;59.340;18.040;2022-11-12T15:52:45;12.80;99.90
12130;DHT22;6128;59.340;18.040;2022-11-12T15:55:14;12.80;99.90
12130;DHT22;6128;59.340;18.040;2022-11-12T15:57:43;12.80;99.90
12130;DHT22;6128;59.340;18.040;2022-11-12T16:00:15;12.70;99.90
12130;DHT22;6128;59.340;18.040;2022-11-12T16:02:43;12.70;99.90
12130;DHT22;6128;59.340;18.040;2022-11-12T16:05:25;12.70;99.90
12130;DHT22;6128;59.340;18.040;2022-11-12T16:07:54;12.60;99.90
12130;DHT22;6128;59.340;18.040;2022-11-12T16:10:27;12.60;99.90
12130;DHT22;6128;59.340;18.040;2022-11-12T16:12:58;12.60;99.90
12130;DHT22;6128;59.340;18.040;2022-11-12T16:15:26;12.60;99.90